sensor_id;sensor_type;location;lat;lon;timestamp;P1;durP1;ratioP1;P2;durP2;ratioP2
62457;SDS011;48509;52.122;5.250;2022-07-29T00:00:44;3.6;;;1.3;;
62457;SDS011;48509;52.122;5.250;2022-07-29T00:02:32;2.8;;;1.2;;
62457;SDS011;48509;52.122;5.250;2022-07-29T00:04:19;2.1;;;1.3;;
62457;SDS011;48509;52.122;5.250;2022-07-29T00:09:40;3.3;;;1.3;;
62457;SDS011;48509;52.122;5.250;2022-07-29T00:11:27;2.5;;;1.2;;
62457;SDS011;48509;52.122;5.250;2022-07-29T00:13:14;3.1;;;1.4;;
62457;SDS011;48509;52.122;5.250;2022-07-29T00:15:01;2.8;;;1.3;;
62457;SDS011;48509;52.122;5.250;2022-07-29T00:16:48;5.2;;;1.3;;
62457;SDS011;48509;52.122;5.250;2022-07-29T00:18:34;4.41;;;1.4;;
62457;SDS011;48509;52.122;5.250;2022-07-29T00:22:06;2.7;;;1.2;;
62457;SDS011;48509;52.122;5.250;2022-07-29T00:23:53;4.1;;;1.4;;
62457;SDS011;48509;52.122;5.250;2022-07-29T00:25:40;3.9;;;1.2;;
62457;SDS011;48509;52.122;5.250;2022-07-29T00:27:26;1.5;;;1.0;;
62457;SDS011;48509;52.122;5.250;2022-07-29T00:29:12;2.6;;;1.3;;
62457;SDS011;48509;52.122;5.250;2022-07-29T00:30:58;4.3;;;1.5;;
62457;SDS011;48509;52.122;5.250;2022-07-29T00:37:33;3.7;;;1.2;;
62457;SDS011;48509;52.122;5.250;2022-07-29T00:39:19;2.21;;;1.2;;
62457;SDS011;48509;52.122;5.250;2022-07-29T00:42:51;3.5;;;1.2;;
62457;SDS011;48509;52.122;5.250;2022-07-29T00:44:38;2.1;;;1.3;;
62457;SDS011;48509;52.122;5.250;2022-07-29T00:46:25;5.4;;;1.2;;
62457;SDS011;48509;52.122;5.250;2022-07-29T00:48:12;4.1;;;1.5;;
62457;SDS011;48509;52.122;5.250;2022-07-29T00:49:59;3.7;;;1.2;;
62457;SDS011;48509;52.122;5.250;2022-07-29T00:53:35;3.5;;;1.2;;
62457;SDS011;48509;52.122;5.250;2022-07-29T00:55:22;3.2;;;1.5;;
62457;SDS011;48509;52.122;5.250;2022-07-29T00:57:09;3.3;;;1.2;;
62457;SDS011;48509;52.122;5.250;2022-07-29T00:58:57;3.1;;;1.2;;
62457;SDS011;48509;52.122;5.250;2022-07-29T01:00:44;3.8;;;1.4;;
62457;SDS011;48509;52.122;5.250;2022-07-29T01:02:31;3.1;;;1.2;;
62457;SDS011;48509;52.122;5.250;2022-07-29T01:06:05;2.9;;;1.3;;
62457;SDS011;48509;52.122;5.250;2022-07-29T01:07:53;2.1;;;1.5;;
62457;SDS011;48509;52.122;5.250;2022-07-29T01:09:43;2.21;;;1.2;;
62457;SDS011;48509;52.122;5.250;2022-07-29T01:11:32;2.6;;;1.2;;
62457;SDS011;48509;52.122;5.250;2022-07-29T01:13:20;2.31;;;1.11;;
62457;SDS011;48509;52.122;5.250;2022-07-29T01:15:07;3.1;;;1.3;;
62457;SDS011;48509;52.122;5.250;2022-07-29T01:19:00;4.2;;;1.5;;
62457;SDS011;48509;52.122;5.250;2022-07-29T01:21:08;2.8;;;1.3;;
62457;SDS011;48509;52.122;5.250;2022-07-29T01:24:16;1.8;;;1.11;;
62457;SDS011;48509;52.122;5.250;2022-07-29T01:26:49;3.8;;;1.3;;
62457;SDS011;48509;52.122;5.250;2022-07-29T01:28:47;4.8;;;1.4;;
62457;SDS011;48509;52.122;5.250;2022-07-29T01:30:45;3.1;;;1.4;;
62457;SDS011;48509;52.122;5.250;2022-07-29T01:32:37;2.5;;;1.2;;
62457;SDS011;48509;52.122;5.250;2022-07-29T01:34:27;2.7;;;1.11;;
62457;SDS011;48509;52.122;5.250;2022-07-29T01:36:23;2.9;;;1.4;;
62457;SDS011;48509;52.122;5.250;2022-07-29T01:38:13;3.3;;;1.3;;
62457;SDS011;48509;52.122;5.250;2022-07-29T01:40:07;3.8;;;1.3;;
62457;SDS011;48509;52.122;5.250;2022-07-29T01:42:10;4.3;;;1.5;;
62457;SDS011;48509;52.122;5.250;2022-07-29T01:46:00;3.6;;;1.4;;
62457;SDS011;48509;52.122;5.250;2022-07-29T01:47:54;3.5;;;1.5;;
62457;SDS011;48509;52.122;5.250;2022-07-29T01:49:50;2.1;;;1.3;;
62457;SDS011;48509;52.122;5.250;2022-07-29T01:51:41;2.9;;;1.6;;
62457;SDS011;48509;52.122;5.250;2022-07-29T01:53:35;2.6;;;1.5;;
62457;SDS011;48509;52.122;5.250;2022-07-29T01:55:38;5.6;;;1.5;;
62457;SDS011;48509;52.122;5.250;2022-07-29T01:57:30;2.4;;;1.3;;
62457;SDS011;48509;52.122;5.250;2022-07-29T01:59:19;2.31;;;1.4;;
62457;SDS011;48509;52.122;5.250;2022-07-29T02:01:07;2.8;;;1.3;;
62457;SDS011;48509;52.122;5.250;2022-07-29T02:04:48;4.91;;;1.4;;
62457;SDS011;48509;52.122;5.250;2022-07-29T02:06:37;3.0;;;1.6;;
62457;SDS011;48509;52.122;5.250;2022-07-29T02:08:26;5.8;;;1.6;;
62457;SDS011;48509;52.122;5.250;2022-07-29T02:10:16;2.5;;;1.4;;
62457;SDS011;48509;52.122;5.250;2022-07-29T02:12:08;2.1;;;1.3;;
62457;SDS011;48509;52.122;5.250;2022-07-29T02:13:58;3.0;;;1.3;;
62457;SDS011;48509;52.122;5.250;2022-07-29T02:15:47;4.91;;;1.4;;
62457;SDS011;48509;52.122;5.250;2022-07-29T02:19:30;3.4;;;1.8;;
62457;SDS011;48509;52.122;5.250;2022-07-29T02:21:19;2.5;;;1.2;;
62457;SDS011;48509;52.122;5.250;2022-07-29T02:23:10;2.4;;;1.4;;
62457;SDS011;48509;52.122;5.250;2022-07-29T02:24:59;2.8;;;1.8;;
62457;SDS011;48509;52.122;5.250;2022-07-29T02:26:47;5.6;;;1.8;;
62457;SDS011;48509;52.122;5.250;2022-07-29T02:28:36;4.91;;;1.9;;
62457;SDS011;48509;52.122;5.250;2022-07-29T02:30:23;3.5;;;1.7;;
62457;SDS011;48509;52.122;5.250;2022-07-29T02:34:02;3.8;;;1.8;;
62457;SDS011;48509;52.122;5.250;2022-07-29T02:37:40;2.9;;;1.6;;
62457;SDS011;48509;52.122;5.250;2022-07-29T02:39:29;4.1;;;1.6;;
62457;SDS011;48509;52.122;5.250;2022-07-29T02:41:18;3.9;;;1.7;;
62457;SDS011;48509;52.122;5.250;2022-07-29T02:43:08;2.31;;;1.5;;
62457;SDS011;48509;52.122;5.250;2022-07-29T02:44:56;2.31;;;1.5;;
62457;SDS011;48509;52.122;5.250;2022-07-29T02:48:37;3.4;;;1.5;;
62457;SDS011;48509;52.122;5.250;2022-07-29T02:50:30;3.4;;;1.5;;
62457;SDS011;48509;52.122;5.250;2022-07-29T02:52:21;2.6;;;1.5;;
62457;SDS011;48509;52.122;5.250;2022-07-29T02:54:20;3.8;;;1.6;;
62457;SDS011;48509;52.122;5.250;2022-07-29T02:56:10;6.1;;;1.8;;
62457;SDS011;48509;52.122;5.250;2022-07-29T02:58:01;3.7;;;1.6;;
62457;SDS011;48509;52.122;5.250;2022-07-29T02:59:52;2.7;;;1.6;;
62457;SDS011;48509;52.122;5.250;2022-07-29T03:01:43;2.7;;;1.6;;
62457;SDS011;48509;52.122;5.250;2022-07-29T03:05:21;2.6;;;1.7;;
62457;SDS011;48509;52.122;5.250;2022-07-29T03:07:08;1.9;;;1.4;;
62457;SDS011;48509;52.122;5.250;2022-07-29T03:08:58;2.6;;;1.3;;
62457;SDS011;48509;52.122;5.250;2022-07-29T03:10:47;2.6;;;1.6;;
62457;SDS011;48509;52.122;5.250;2022-07-29T03:12:34;4.7;;;1.8;;
62457;SDS011;48509;52.122;5.250;2022-07-29T03:14:22;2.7;;;1.6;;
62457;SDS011;48509;52.122;5.250;2022-07-29T03:17:59;3.2;;;1.7;;
62457;SDS011;48509;52.122;5.250;2022-07-29T03:19:45;2.7;;;1.9;;
62457;SDS011;48509;52.122;5.250;2022-07-29T03:21:32;2.5;;;1.6;;
62457;SDS011;48509;52.122;5.250;2022-07-29T03:23:22;3.4;;;2.1;;
62457;SDS011;48509;52.122;5.250;2022-07-29T03:25:10;2.9;;;1.9;;
62457;SDS011;48509;52.122;5.250;2022-07-29T03:26:59;3.8;;;1.9;;
62457;SDS011;48509;52.122;5.250;2022-07-29T03:28:46;3.6;;;1.6;;
62457;SDS011;48509;52.122;5.250;2022-07-29T03:32:19;2.31;;;1.5;;
62457;SDS011;48509;52.122;5.250;2022-07-29T03:34:06;3.3;;;1.7;;
62457;SDS011;48509;52.122;5.250;2022-07-29T03:35:52;2.1;;;1.8;;
62457;SDS011;48509;52.122;5.250;2022-07-29T03:37:38;2.8;;;1.7;;
62457;SDS011;48509;52.122;5.250;2022-07-29T03:39:25;4.1;;;1.9;;
62457;SDS011;48509;52.122;5.250;2022-07-29T03:43:05;4.1;;;2.0;;
62457;SDS011;48509;52.122;5.250;2022-07-29T03:44:56;2.8;;;1.9;;
62457;SDS011;48509;52.122;5.250;2022-07-29T03:46:45;10.5;;;1.9;;
62457;SDS011;48509;52.122;5.250;2022-07-29T03:48:36;2.31;;;1.3;;
62457;SDS011;48509;52.122;5.250;2022-07-29T03:50:25;4.3;;;1.9;;
62457;SDS011;48509;52.122;5.250;2022-07-29T03:52:12;5.3;;;1.7;;
62457;SDS011;48509;52.122;5.250;2022-07-29T03:54:00;3.0;;;1.8;;
62457;SDS011;48509;52.122;5.250;2022-07-29T03:57:40;3.3;;;1.8;;
62457;SDS011;48509;52.122;5.250;2022-07-29T03:59:28;4.41;;;1.9;;
62457;SDS011;48509;52.122;5.250;2022-07-29T04:01:18;2.4;;;2.0;;
62457;SDS011;48509;52.122;5.250;2022-07-29T04:03:07;4.1;;;2.31;;
62457;SDS011;48509;52.122;5.250;2022-07-29T04:04:55;2.8;;;1.9;;
62457;SDS011;48509;52.122;5.250;2022-07-29T04:06:42;2.5;;;1.9;;
62457;SDS011;48509;52.122;5.250;2022-07-29T04:08:31;2.8;;;1.6;;
62457;SDS011;48509;52.122;5.250;2022-07-29T04:12:05;3.1;;;2.0;;
62457;SDS011;48509;52.122;5.250;2022-07-29T04:13:52;3.0;;;1.9;;
62457;SDS011;48509;52.122;5.250;2022-07-29T04:15:38;3.3;;;1.8;;
62457;SDS011;48509;52.122;5.250;2022-07-29T04:17:25;1.9;;;1.7;;
62457;SDS011;48509;52.122;5.250;2022-07-29T04:19:11;4.7;;;1.7;;
62457;SDS011;48509;52.122;5.250;2022-07-29T04:22:47;3.8;;;1.9;;
62457;SDS011;48509;52.122;5.250;2022-07-29T04:24:34;3.0;;;1.8;;
62457;SDS011;48509;52.122;5.250;2022-07-29T04:26:20;2.0;;;1.7;;
62457;SDS011;48509;52.122;5.250;2022-07-29T04:28:08;3.4;;;1.8;;
62457;SDS011;48509;52.122;5.250;2022-07-29T04:29:56;3.7;;;1.7;;
62457;SDS011;48509;52.122;5.250;2022-07-29T04:31:42;2.8;;;1.6;;
62457;SDS011;48509;52.122;5.250;2022-07-29T04:35:15;4.41;;;2.21;;
62457;SDS011;48509;52.122;5.250;2022-07-29T04:37:01;4.3;;;1.9;;
62457;SDS011;48509;52.122;5.250;2022-07-29T04:38:49;2.0;;;1.7;;
62457;SDS011;48509;52.122;5.250;2022-07-29T04:40:36;5.4;;;1.6;;
62457;SDS011;48509;52.122;5.250;2022-07-29T04:42:22;2.5;;;1.6;;
62457;SDS011;48509;52.122;5.250;2022-07-29T04:44:08;2.1;;;1.5;;
62457;SDS011;48509;52.122;5.250;2022-07-29T04:47:40;2.21;;;1.3;;
62457;SDS011;48509;52.122;5.250;2022-07-29T04:49:27;3.4;;;1.7;;
62457;SDS011;48509;52.122;5.250;2022-07-29T04:51:14;3.3;;;1.9;;
62457;SDS011;48509;52.122;5.250;2022-07-29T04:53:02;3.7;;;1.7;;
62457;SDS011;48509;52.122;5.250;2022-07-29T04:54:48;3.7;;;2.0;;
62457;SDS011;48509;52.122;5.250;2022-07-29T04:58:23;4.3;;;1.7;;
62457;SDS011;48509;52.122;5.250;2022-07-29T05:00:10;6.1;;;1.9;;
62457;SDS011;48509;52.122;5.250;2022-07-29T05:01:57;2.8;;;1.7;;
62457;SDS011;48509;52.122;5.250;2022-07-29T05:03:44;3.0;;;1.8;;
62457;SDS011;48509;52.122;5.250;2022-07-29T05:05:30;3.7;;;1.7;;
62457;SDS011;48509;52.122;5.250;2022-07-29T05:07:17;3.0;;;1.7;;
62457;SDS011;48509;52.122;5.250;2022-07-29T05:10:51;5.8;;;1.7;;
62457;SDS011;48509;52.122;5.250;2022-07-29T05:12:37;2.9;;;1.5;;
62457;SDS011;48509;52.122;5.250;2022-07-29T05:14:23;2.9;;;1.6;;
62457;SDS011;48509;52.122;5.250;2022-07-29T05:16:10;2.9;;;1.4;;
62457;SDS011;48509;52.122;5.250;2022-07-29T05:17:56;3.6;;;1.7;;
62457;SDS011;48509;52.122;5.250;2022-07-29T05:19:42;5.7;;;1.6;;
62457;SDS011;48509;52.122;5.250;2022-07-29T05:23:16;3.6;;;1.8;;
62457;SDS011;48509;52.122;5.250;2022-07-29T05:25:03;7.4;;;1.8;;
62457;SDS011;48509;52.122;5.250;2022-07-29T05:26:50;4.61;;;1.6;;
62457;SDS011;48509;52.122;5.250;2022-07-29T05:28:37;6.1;;;1.9;;
62457;SDS011;48509;52.122;5.250;2022-07-29T05:30:23;4.7;;;2.1;;
62457;SDS011;48509;52.122;5.250;2022-07-29T05:32:10;2.9;;;1.8;;
62457;SDS011;48509;52.122;5.250;2022-07-29T05:35:44;4.7;;;1.6;;
62457;SDS011;48509;52.122;5.250;2022-07-29T05:37:30;3.8;;;1.7;;
62457;SDS011;48509;52.122;5.250;2022-07-29T05:39:17;1.9;;;1.5;;
62457;SDS011;48509;52.122;5.250;2022-07-29T05:41:03;2.5;;;1.7;;
62457;SDS011;48509;52.122;5.250;2022-07-29T05:42:50;2.5;;;1.7;;
62457;SDS011;48509;52.122;5.250;2022-07-29T05:46:25;4.0;;;1.9;;
62457;SDS011;48509;52.122;5.250;2022-07-29T05:48:12;3.5;;;1.8;;
62457;SDS011;48509;52.122;5.250;2022-07-29T05:49:58;2.6;;;1.4;;
62457;SDS011;48509;52.122;5.250;2022-07-29T05:51:44;3.5;;;1.7;;
62457;SDS011;48509;52.122;5.250;2022-07-29T05:53:30;3.1;;;1.5;;
62457;SDS011;48509;52.122;5.250;2022-07-29T05:55:17;4.5;;;1.9;;
62457;SDS011;48509;52.122;5.250;2022-07-29T05:58:52;2.7;;;1.7;;
62457;SDS011;48509;52.122;5.250;2022-07-29T06:00:39;4.91;;;2.0;;
62457;SDS011;48509;52.122;5.250;2022-07-29T06:02:26;3.1;;;1.5;;
62457;SDS011;48509;52.122;5.250;2022-07-29T06:04:12;4.61;;;2.1;;
62457;SDS011;48509;52.122;5.250;2022-07-29T06:05:59;5.7;;;2.0;;
62457;SDS011;48509;52.122;5.250;2022-07-29T06:07:45;3.5;;;2.21;;
62457;SDS011;48509;52.122;5.250;2022-07-29T06:11:19;5.3;;;2.0;;
62457;SDS011;48509;52.122;5.250;2022-07-29T06:13:05;4.8;;;1.8;;
62457;SDS011;48509;52.122;5.250;2022-07-29T06:14:51;5.7;;;2.1;;
62457;SDS011;48509;52.122;5.250;2022-07-29T06:16:37;4.5;;;2.0;;
62457;SDS011;48509;52.122;5.250;2022-07-29T06:18:23;3.4;;;1.9;;
62457;SDS011;48509;52.122;5.250;2022-07-29T06:21:57;4.5;;;1.8;;
62457;SDS011;48509;52.122;5.250;2022-07-29T06:23:45;4.1;;;2.1;;
62457;SDS011;48509;52.122;5.250;2022-07-29T06:27:20;4.0;;;2.0;;
62457;SDS011;48509;52.122;5.250;2022-07-29T06:29:06;4.0;;;2.1;;
62457;SDS011;48509;52.122;5.250;2022-07-29T06:30:54;5.5;;;2.1;;
62457;SDS011;48509;52.122;5.250;2022-07-29T06:34:28;2.7;;;1.8;;
62457;SDS011;48509;52.122;5.250;2022-07-29T06:36:14;5.6;;;2.31;;
62457;SDS011;48509;52.122;5.250;2022-07-29T06:38:01;4.91;;;2.1;;
62457;SDS011;48509;52.122;5.250;2022-07-29T06:41:00;2.6;;;1.6;;
62457;SDS011;48509;52.122;5.250;2022-07-29T06:42:46;3.7;;;2.0;;
62457;SDS011;48509;52.122;5.250;2022-07-29T06:44:33;3.7;;;2.21;;
62457;SDS011;48509;52.122;5.250;2022-07-29T06:46:20;2.8;;;1.9;;
62457;SDS011;48509;52.122;5.250;2022-07-29T06:48:08;2.7;;;1.9;;
62457;SDS011;48509;52.122;5.250;2022-07-29T06:49:55;5.0;;;2.21;;
62457;SDS011;48509;52.122;5.250;2022-07-29T06:51:41;2.5;;;2.1;;
62457;SDS011;48509;52.122;5.250;2022-07-29T06:55:16;4.3;;;2.31;;
62457;SDS011;48509;52.122;5.250;2022-07-29T06:57:02;3.4;;;1.9;;
62457;SDS011;48509;52.122;5.250;2022-07-29T06:58:48;3.6;;;2.0;;
62457;SDS011;48509;52.122;5.250;2022-07-29T07:00:34;3.8;;;2.31;;
62457;SDS011;48509;52.122;5.250;2022-07-29T07:02:21;5.6;;;2.31;;
62457;SDS011;48509;52.122;5.250;2022-07-29T07:05:56;4.8;;;2.5;;
62457;SDS011;48509;52.122;5.250;2022-07-29T07:07:43;3.7;;;2.21;;
62457;SDS011;48509;52.122;5.250;2022-07-29T07:09:29;4.5;;;2.0;;
62457;SDS011;48509;52.122;5.250;2022-07-29T07:11:15;4.5;;;2.31;;
62457;SDS011;48509;52.122;5.250;2022-07-29T07:13:01;5.11;;;2.31;;
62457;SDS011;48509;52.122;5.250;2022-07-29T07:14:49;5.3;;;2.5;;
62457;SDS011;48509;52.122;5.250;2022-07-29T07:18:22;6.0;;;2.1;;
62457;SDS011;48509;52.122;5.250;2022-07-29T07:20:08;2.21;;;1.8;;
62457;SDS011;48509;52.122;5.250;2022-07-29T07:21:55;5.0;;;2.6;;
62457;SDS011;48509;52.122;5.250;2022-07-29T07:25:28;5.0;;;2.0;;
62457;SDS011;48509;52.122;5.250;2022-07-29T07:27:14;4.2;;;1.8;;
62457;SDS011;48509;52.122;5.250;2022-07-29T07:30:47;5.11;;;2.5;;
62457;SDS011;48509;52.122;5.250;2022-07-29T07:32:34;4.61;;;2.21;;
62457;SDS011;48509;52.122;5.250;2022-07-29T07:34:21;5.11;;;2.0;;
62457;SDS011;48509;52.122;5.250;2022-07-29T07:36:07;4.2;;;2.1;;
62457;SDS011;48509;52.122;5.250;2022-07-29T07:37:53;2.8;;;2.0;;
62457;SDS011;48509;52.122;5.250;2022-07-29T07:41:27;3.0;;;2.0;;
62457;SDS011;48509;52.122;5.250;2022-07-29T07:43:14;2.9;;;2.21;;
62457;SDS011;48509;52.122;5.250;2022-07-29T07:45:00;3.1;;;2.1;;
62457;SDS011;48509;52.122;5.250;2022-07-29T07:46:46;2.6;;;2.4;;
62457;SDS011;48509;52.122;5.250;2022-07-29T07:48:34;6.2;;;2.6;;
62457;SDS011;48509;52.122;5.250;2022-07-29T07:50:21;8.31;;;2.5;;
62457;SDS011;48509;52.122;5.250;2022-07-29T07:53:54;3.2;;;2.1;;
62457;SDS011;48509;52.122;5.250;2022-07-29T07:55:40;6.8;;;2.5;;
62457;SDS011;48509;52.122;5.250;2022-07-29T07:57:29;3.2;;;2.1;;
62457;SDS011;48509;52.122;5.250;2022-07-29T07:59:15;3.9;;;2.21;;
62457;SDS011;48509;52.122;5.250;2022-07-29T08:01:02;5.11;;;2.6;;
62457;SDS011;48509;52.122;5.250;2022-07-29T08:02:49;4.91;;;2.5;;
62457;SDS011;48509;52.122;5.250;2022-07-29T08:06:24;5.6;;;2.4;;
62457;SDS011;48509;52.122;5.250;2022-07-29T08:08:11;4.2;;;2.31;;
62457;SDS011;48509;52.122;5.250;2022-07-29T08:09:57;5.9;;;2.6;;
62457;SDS011;48509;52.122;5.250;2022-07-29T08:11:43;5.6;;;2.9;;
62457;SDS011;48509;52.122;5.250;2022-07-29T08:13:30;4.91;;;2.31;;
62457;SDS011;48509;52.122;5.250;2022-07-29T08:17:03;4.8;;;2.9;;
62457;SDS011;48509;52.122;5.250;2022-07-29T08:18:49;3.4;;;2.31;;
62457;SDS011;48509;52.122;5.250;2022-07-29T08:20:35;5.7;;;2.0;;
62457;SDS011;48509;52.122;5.250;2022-07-29T08:22:23;4.0;;;2.31;;
62457;SDS011;48509;52.122;5.250;2022-07-29T08:25:13;6.8;;;2.4;;
62457;SDS011;48509;52.122;5.250;2022-07-29T08:26:59;6.1;;;1.9;;
62457;SDS011;48509;52.122;5.250;2022-07-29T08:28:46;4.8;;;2.0;;
62457;SDS011;48509;52.122;5.250;2022-07-29T08:30:33;7.6;;;2.21;;
62457;SDS011;48509;52.122;5.250;2022-07-29T08:32:20;3.0;;;2.31;;
62457;SDS011;48509;52.122;5.250;2022-07-29T08:35:55;5.0;;;2.1;;
62457;SDS011;48509;52.122;5.250;2022-07-29T08:37:42;4.91;;;2.0;;
62457;SDS011;48509;52.122;5.250;2022-07-29T08:39:28;5.7;;;2.21;;
62457;SDS011;48509;52.122;5.250;2022-07-29T08:41:15;3.4;;;2.1;;
62457;SDS011;48509;52.122;5.250;2022-07-29T08:43:04;2.6;;;2.1;;
62457;SDS011;48509;52.122;5.250;2022-07-29T08:44:53;3.3;;;1.9;;
62457;SDS011;48509;52.122;5.250;2022-07-29T08:48:28;4.61;;;2.31;;
62457;SDS011;48509;52.122;5.250;2022-07-29T08:50:15;5.6;;;2.1;;
62457;SDS011;48509;52.122;5.250;2022-07-29T08:52:01;2.6;;;1.9;;
62457;SDS011;48509;52.122;5.250;2022-07-29T08:53:49;2.6;;;1.9;;
62457;SDS011;48509;52.122;5.250;2022-07-29T08:55:38;7.7;;;2.1;;
62457;SDS011;48509;52.122;5.250;2022-07-29T08:57:26;3.6;;;2.1;;
62457;SDS011;48509;52.122;5.250;2022-07-29T09:01:01;5.6;;;2.6;;
62457;SDS011;48509;52.122;5.250;2022-07-29T09:02:49;5.5;;;2.5;;
62457;SDS011;48509;52.122;5.250;2022-07-29T09:04:42;3.2;;;2.4;;
62457;SDS011;48509;52.122;5.250;2022-07-29T09:06:31;3.8;;;2.6;;
62457;SDS011;48509;52.122;5.250;2022-07-29T09:08:23;5.6;;;2.6;;
62457;SDS011;48509;52.122;5.250;2022-07-29T09:10:10;4.8;;;2.31;;
62457;SDS011;48509;52.122;5.250;2022-07-29T09:11:56;6.6;;;2.8;;
62457;SDS011;48509;52.122;5.250;2022-07-29T09:15:32;4.8;;;2.6;;
62457;SDS011;48509;52.122;5.250;2022-07-29T09:17:33;2.1;;;1.8;;
62457;SDS011;48509;52.122;5.250;2022-07-29T09:19:26;4.61;;;2.21;;
62457;SDS011;48509;52.122;5.250;2022-07-29T09:22:28;4.0;;;2.4;;
62457;SDS011;48509;52.122;5.250;2022-07-29T09:24:15;5.0;;;2.6;;
62457;SDS011;48509;52.122;5.250;2022-07-29T09:26:05;5.5;;;2.31;;
62457;SDS011;48509;52.122;5.250;2022-07-29T09:27:51;5.7;;;2.31;;
62457;SDS011;48509;52.122;5.250;2022-07-29T09:29:38;4.1;;;1.8;;
62457;SDS011;48509;52.122;5.250;2022-07-29T09:31:31;6.1;;;2.4;;
62457;SDS011;48509;52.122;5.250;2022-07-29T09:33:20;5.0;;;1.8;;
62457;SDS011;48509;52.122;5.250;2022-07-29T09:35:16;2.4;;;2.21;;
62457;SDS011;48509;52.122;5.250;2022-07-29T09:37:05;8.0;;;2.31;;
62457;SDS011;48509;52.122;5.250;2022-07-29T09:40:43;7.1;;;2.5;;
62457;SDS011;48509;52.122;5.250;2022-07-29T09:42:43;3.5;;;2.0;;
62457;SDS011;48509;52.122;5.250;2022-07-29T09:44:45;6.7;;;2.5;;
62457;SDS011;48509;52.122;5.250;2022-07-29T09:46:34;3.7;;;1.9;;
62457;SDS011;48509;52.122;5.250;2022-07-29T09:48:22;2.9;;;1.8;;
62457;SDS011;48509;52.122;5.250;2022-07-29T09:50:10;3.5;;;1.8;;
62457;SDS011;48509;52.122;5.250;2022-07-29T09:51:59;7.9;;;1.8;;
62457;SDS011;48509;52.122;5.250;2022-07-29T09:53:50;4.41;;;1.8;;
62457;SDS011;48509;52.122;5.250;2022-07-29T09:57:39;8.31;;;2.0;;
62457;SDS011;48509;52.122;5.250;2022-07-29T09:59:26;5.6;;;1.9;;
62457;SDS011;48509;52.122;5.250;2022-07-29T10:01:12;3.5;;;1.7;;
62457;SDS011;48509;52.122;5.250;2022-07-29T10:03:00;3.0;;;1.9;;
62457;SDS011;48509;52.122;5.250;2022-07-29T10:04:47;6.3;;;1.6;;
62457;SDS011;48509;52.122;5.250;2022-07-29T10:06:34;6.1;;;1.6;;
62457;SDS011;48509;52.122;5.250;2022-07-29T10:08:41;5.9;;;1.9;;
62457;SDS011;48509;52.122;5.250;2022-07-29T10:10:28;4.5;;;1.7;;
62457;SDS011;48509;52.122;5.250;2022-07-29T10:14:04;5.6;;;1.9;;
62457;SDS011;48509;52.122;5.250;2022-07-29T10:15:51;3.0;;;1.5;;
62457;SDS011;48509;52.122;5.250;2022-07-29T10:17:39;4.41;;;1.8;;
62457;SDS011;48509;52.122;5.250;2022-07-29T10:19:27;3.7;;;1.6;;
62457;SDS011;48509;52.122;5.250;2022-07-29T10:21:15;2.4;;;1.7;;
62457;SDS011;48509;52.122;5.250;2022-07-29T10:23:02;6.4;;;1.4;;
62457;SDS011;48509;52.122;5.250;2022-07-29T10:26:41;2.9;;;1.9;;
62457;SDS011;48509;52.122;5.250;2022-07-29T10:28:29;2.31;;;1.5;;
62457;SDS011;48509;52.122;5.250;2022-07-29T10:30:16;2.7;;;1.7;;
62457;SDS011;48509;52.122;5.250;2022-07-29T10:32:09;3.5;;;1.8;;
62457;SDS011;48509;52.122;5.250;2022-07-29T10:34:07;3.1;;;1.6;;
62457;SDS011;48509;52.122;5.250;2022-07-29T10:36:07;5.5;;;1.9;;
62457;SDS011;48509;52.122;5.250;2022-07-29T10:38:21;4.7;;;2.1;;
62457;SDS011;48509;52.122;5.250;2022-07-29T10:41:52;4.0;;;1.7;;
62457;SDS011;48509;52.122;5.250;2022-07-29T10:43:56;3.1;;;1.4;;
62457;SDS011;48509;52.122;5.250;2022-07-29T10:47:36;3.6;;;1.4;;
62457;SDS011;48509;52.122;5.250;2022-07-29T10:49:22;4.7;;;2.0;;
62457;SDS011;48509;52.122;5.250;2022-07-29T10:51:10;3.1;;;1.9;;
62457;SDS011;48509;52.122;5.250;2022-07-29T10:52:57;3.6;;;1.7;;
62457;SDS011;48509;52.122;5.250;2022-07-29T10:54:47;4.2;;;1.7;;
62457;SDS011;48509;52.122;5.250;2022-07-29T10:56:36;3.6;;;1.6;;
62457;SDS011;48509;52.122;5.250;2022-07-29T11:00:27;5.6;;;2.0;;
62457;SDS011;48509;52.122;5.250;2022-07-29T11:02:50;7.7;;;2.1;;
62457;SDS011;48509;52.122;5.250;2022-07-29T11:05:08;3.5;;;1.8;;
62457;SDS011;48509;52.122;5.250;2022-07-29T11:07:08;3.6;;;1.8;;
62457;SDS011;48509;52.122;5.250;2022-07-29T11:13:55;2.9;;;1.5;;
62457;SDS011;48509;52.122;5.250;2022-07-29T11:15:57;4.1;;;2.0;;
62457;SDS011;48509;52.122;5.250;2022-07-29T11:18:03;4.3;;;2.0;;
62457;SDS011;48509;52.122;5.250;2022-07-29T11:19:51;2.6;;;1.5;;
62457;SDS011;48509;52.122;5.250;2022-07-29T11:22:31;3.5;;;1.5;;
62457;SDS011;48509;52.122;5.250;2022-07-29T11:26:13;5.9;;;1.8;;
62457;SDS011;48509;52.122;5.250;2022-07-29T11:28:08;2.9;;;1.8;;
62457;SDS011;48509;52.122;5.250;2022-07-29T11:30:04;6.8;;;1.9;;
62457;SDS011;48509;52.122;5.250;2022-07-29T11:33:56;12.2;;;2.21;;
62457;SDS011;48509;52.122;5.250;2022-07-29T11:35:43;4.8;;;1.7;;
62457;SDS011;48509;52.122;5.250;2022-07-29T11:38:23;5.8;;;2.0;;
62457;SDS011;48509;52.122;5.250;2022-07-29T11:40:13;3.6;;;1.9;;
62457;SDS011;48509;52.122;5.250;2022-07-29T11:42:37;7.0;;;2.21;;
62457;SDS011;48509;52.122;5.250;2022-07-29T11:44:54;4.8;;;1.9;;
62457;SDS011;48509;52.122;5.250;2022-07-29T11:46:44;4.91;;;2.31;;
62457;SDS011;48509;52.122;5.250;2022-07-29T11:50:29;4.61;;;1.9;;
62457;SDS011;48509;52.122;5.250;2022-07-29T11:52:18;3.9;;;1.9;;
62457;SDS011;48509;52.122;5.250;2022-07-29T11:54:06;2.8;;;1.8;;
62457;SDS011;48509;52.122;5.250;2022-07-29T11:55:59;3.6;;;2.0;;
62457;SDS011;48509;52.122;5.250;2022-07-29T11:57:47;8.5;;;2.1;;
62457;SDS011;48509;52.122;5.250;2022-07-29T11:59:38;3.8;;;1.8;;
62457;SDS011;48509;52.122;5.250;2022-07-29T12:01:27;7.4;;;2.21;;
62457;SDS011;48509;52.122;5.250;2022-07-29T12:05:10;7.7;;;2.0;;
62457;SDS011;48509;52.122;5.250;2022-07-29T12:06:57;6.7;;;2.4;;
62457;SDS011;48509;52.122;5.250;2022-07-29T12:08:44;8.9;;;2.9;;
62457;SDS011;48509;52.122;5.250;2022-07-29T12:10:30;6.4;;;2.31;;
62457;SDS011;48509;52.122;5.250;2022-07-29T12:12:18;8.81;;;2.6;;
62457;SDS011;48509;52.122;5.250;2022-07-29T12:14:05;4.91;;;2.0;;
62457;SDS011;48509;52.122;5.250;2022-07-29T12:17:39;8.9;;;2.4;;
62457;SDS011;48509;52.122;5.250;2022-07-29T12:19:25;9.0;;;2.6;;
62457;SDS011;48509;52.122;5.250;2022-07-29T12:21:12;4.0;;;1.8;;
62457;SDS011;48509;52.122;5.250;2022-07-29T12:23:03;11.6;;;2.6;;
62457;SDS011;48509;52.122;5.250;2022-07-29T12:24:52;5.6;;;2.1;;
62457;SDS011;48509;52.122;5.250;2022-07-29T12:26:48;9.71;;;3.1;;
62457;SDS011;48509;52.122;5.250;2022-07-29T12:28:36;7.1;;;2.4;;
62457;SDS011;48509;52.122;5.250;2022-07-29T12:32:22;4.41;;;2.4;;
62457;SDS011;48509;52.122;5.250;2022-07-29T12:34:09;7.0;;;2.1;;
62457;SDS011;48509;52.122;5.250;2022-07-29T12:35:57;6.8;;;2.5;;
62457;SDS011;48509;52.122;5.250;2022-07-29T12:37:45;7.4;;;2.5;;
62457;SDS011;48509;52.122;5.250;2022-07-29T12:39:34;3.3;;;2.31;;
62457;SDS011;48509;52.122;5.250;2022-07-29T12:41:21;5.7;;;2.1;;
62457;SDS011;48509;52.122;5.250;2022-07-29T12:43:10;11.0;;;3.3;;
62457;SDS011;48509;52.122;5.250;2022-07-29T12:47:00;7.0;;;2.5;;
62457;SDS011;48509;52.122;5.250;2022-07-29T12:48:50;7.5;;;2.7;;
62457;SDS011;48509;52.122;5.250;2022-07-29T12:50:51;4.61;;;2.1;;
62457;SDS011;48509;52.122;5.250;2022-07-29T12:52:42;4.61;;;2.1;;
62457;SDS011;48509;52.122;5.250;2022-07-29T12:54:30;6.1;;;2.31;;
62457;SDS011;48509;52.122;5.250;2022-07-29T12:56:16;14.3;;;2.6;;
62457;SDS011;48509;52.122;5.250;2022-07-29T12:58:03;9.9;;;3.2;;
62457;SDS011;48509;52.122;5.250;2022-07-29T12:59:59;5.0;;;2.8;;
62457;SDS011;48509;52.122;5.250;2022-07-29T13:03:46;7.4;;;3.9;;
62457;SDS011;48509;52.122;5.250;2022-07-29T13:05:40;8.31;;;3.4;;
62457;SDS011;48509;52.122;5.250;2022-07-29T13:07:30;5.6;;;2.4;;
62457;SDS011;48509;52.122;5.250;2022-07-29T13:09:19;11.4;;;3.2;;
62457;SDS011;48509;52.122;5.250;2022-07-29T13:11:06;7.7;;;3.5;;
62457;SDS011;48509;52.122;5.250;2022-07-29T13:13:01;9.1;;;2.6;;
62457;SDS011;48509;52.122;5.250;2022-07-29T13:15:12;6.8;;;2.6;;
62457;SDS011;48509;52.122;5.250;2022-07-29T13:17:01;5.5;;;2.5;;
62457;SDS011;48509;52.122;5.250;2022-07-29T13:19:02;4.41;;;2.1;;
62457;SDS011;48509;52.122;5.250;2022-07-29T13:20:51;5.3;;;1.8;;
62457;SDS011;48509;52.122;5.250;2022-07-29T13:24:27;3.1;;;2.1;;